sensor_id;sensor_type;location;lat;lon;timestamp;P1;durP1;ratioP1;P2;durP2;ratioP2
8466;SDS011;4270;48.148;11.648;2024-02-15T00:00:27;2.60;;;1.57;;
8466;SDS011;4270;48.148;11.648;2024-02-15T00:02:52;1.63;;;1.30;;
8466;SDS011;4270;48.148;11.648;2024-02-15T00:05:17;1.70;;;0.90;;
8466;SDS011;4270;48.148;11.648;2024-02-15T00:07:42;2.10;;;1.40;;
8466;SDS011;4270;48.148;11.648;2024-02-15T00:10:09;2.47;;;1.40;;
8466;SDS011;4270;48.148;11.648;2024-02-15T00:12:34;1.97;;;1.23;;
8466;SDS011;4270;48.148;11.648;2024-02-15T00:14:59;2.43;;;1.30;;
8466;SDS011;4270;48.148;11.648;2024-02-15T00:17:25;1.90;;;1.30;;
8466;SDS011;4270;48.148;11.648;2024-02-15T00:19:52;1.43;;;1.00;;
8466;SDS011;4270;48.148;11.648;2024-02-15T00:22:17;2.77;;;1.40;;
8466;SDS011;4270;48.148;11.648;2024-02-15T00:24:42;3.43;;;1.30;;
8466;SDS011;4270;48.148;11.648;2024-02-15T00:27:08;2.07;;;1.50;;
8466;SDS011;4270;48.148;11.648;2024-02-15T00:29:35;1.53;;;1.17;;
8466;SDS011;4270;48.148;11.648;2024-02-15T00:32:01;2.20;;;1.10;;
8466;SDS011;4270;48.148;11.648;2024-02-15T00:34:28;7.10;;;1.47;;
8466;SDS011;4270;48.148;11.648;2024-02-15T00:36:53;2.00;;;1.30;;
8466;SDS011;4270;48.148;11.648;2024-02-15T00:39:18;2.67;;;1.30;;
8466;SDS011;4270;48.148;11.648;2024-02-15T00:41:45;2.30;;;1.10;;
8466;SDS011;4270;48.148;11.648;2024-02-15T00:44:10;2.10;;;1.33;;
8466;SDS011;4270;48.148;11.648;2024-02-15T00:46:36;1.60;;;1.30;;
8466;SDS011;4270;48.148;11.648;2024-02-15T00:49:01;1.83;;;1.23;;
8466;SDS011;4270;48.148;11.648;2024-02-15T00:51:26;1.80;;;1.10;;
8466;SDS011;4270;48.148;11.648;2024-02-15T00:53:51;1.87;;;1.10;;
8466;SDS011;4270;48.148;11.648;2024-02-15T00:56:17;1.57;;;1.20;;
8466;SDS011;4270;48.148;11.648;2024-02-15T00:58:42;2.97;;;1.70;;
8466;SDS011;4270;48.148;11.648;2024-02-15T01:01:07;1.50;;;1.40;;
8466;SDS011;4270;48.148;11.648;2024-02-15T01:03:33;1.90;;;1.27;;
8466;SDS011;4270;48.148;11.648;2024-02-15T01:05:59;1.60;;;1.27;;
8466;SDS011;4270;48.148;11.648;2024-02-15T01:08:24;1.87;;;1.40;;
8466;SDS011;4270;48.148;11.648;2024-02-15T01:10:50;1.40;;;1.27;;
8466;SDS011;4270;48.148;11.648;2024-02-15T01:13:15;2.10;;;1.37;;
8466;SDS011;4270;48.148;11.648;2024-02-15T01:15:40;2.73;;;1.17;;
8466;SDS011;4270;48.148;11.648;2024-02-15T01:18:06;1.00;;;1.00;;
8466;SDS011;4270;48.148;11.648;2024-02-15T01:20:31;1.73;;;1.40;;
8466;SDS011;4270;48.148;11.648;2024-02-15T01:22:56;1.60;;;1.20;;
8466;SDS011;4270;48.148;11.648;2024-02-15T01:25:21;1.40;;;1.30;;
8466;SDS011;4270;48.148;11.648;2024-02-15T01:27:47;1.27;;;0.90;;
8466;SDS011;4270;48.148;11.648;2024-02-15T01:30:13;2.43;;;1.60;;
8466;SDS011;4270;48.148;11.648;2024-02-15T01:32:38;1.50;;;1.03;;
8466;SDS011;4270;48.148;11.648;2024-02-15T01:35:06;2.30;;;1.20;;
8466;SDS011;4270;48.148;11.648;2024-02-15T01:37:32;2.27;;;1.40;;
8466;SDS011;4270;48.148;11.648;2024-02-15T01:39:58;1.97;;;1.50;;
8466;SDS011;4270;48.148;11.648;2024-02-15T01:42:23;1.37;;;1.00;;
8466;SDS011;4270;48.148;11.648;2024-02-15T01:44:49;1.60;;;1.30;;
8466;SDS011;4270;48.148;11.648;2024-02-15T01:47:14;2.10;;;1.30;;
8466;SDS011;4270;48.148;11.648;2024-02-15T01:49:41;2.20;;;1.20;;
8466;SDS011;4270;48.148;11.648;2024-02-15T01:52:06;3.20;;;1.27;;
8466;SDS011;4270;48.148;11.648;2024-02-15T01:54:33;1.80;;;1.50;;
8466;SDS011;4270;48.148;11.648;2024-02-15T01:57:00;1.30;;;1.00;;
8466;SDS011;4270;48.148;11.648;2024-02-15T01:59:27;1.73;;;1.10;;
8466;SDS011;4270;48.148;11.648;2024-02-15T02:01:52;1.70;;;1.20;;
8466;SDS011;4270;48.148;11.648;2024-02-15T02:04:17;1.33;;;1.10;;
8466;SDS011;4270;48.148;11.648;2024-02-15T02:06:42;2.23;;;1.07;;
8466;SDS011;4270;48.148;11.648;2024-02-15T02:09:10;1.90;;;1.10;;
8466;SDS011;4270;48.148;11.648;2024-02-15T02:11:37;1.63;;;1.20;;
8466;SDS011;4270;48.148;11.648;2024-02-15T02:14:03;1.93;;;1.27;;
8466;SDS011;4270;48.148;11.648;2024-02-15T02:16:29;1.50;;;1.20;;
8466;SDS011;4270;48.148;11.648;2024-02-15T02:18:56;1.40;;;1.20;;
8466;SDS011;4270;48.148;11.648;2024-02-15T02:21:22;2.00;;;1.23;;
8466;SDS011;4270;48.148;11.648;2024-02-15T02:23:48;1.93;;;1.37;;
8466;SDS011;4270;48.148;11.648;2024-02-15T02:26:17;2.50;;;1.40;;
8466;SDS011;4270;48.148;11.648;2024-02-15T02:28:42;1.50;;;1.10;;
8466;SDS011;4270;48.148;11.648;2024-02-15T02:31:08;1.57;;;1.47;;
8466;SDS011;4270;48.148;11.648;2024-02-15T02:33:36;1.20;;;1.10;;
8466;SDS011;4270;48.148;11.648;2024-02-15T02:36:01;1.40;;;1.07;;
8466;SDS011;4270;48.148;11.648;2024-02-15T02:38:26;1.30;;;1.20;;
8466;SDS011;4270;48.148;11.648;2024-02-15T02:40:52;2.47;;;1.10;;
8466;SDS011;4270;48.148;11.648;2024-02-15T02:43:17;2.03;;;1.03;;
8466;SDS011;4270;48.148;11.648;2024-02-15T02:45:43;1.70;;;1.00;;
8466;SDS011;4270;48.148;11.648;2024-02-15T02:48:10;1.53;;;1.03;;
8466;SDS011;4270;48.148;11.648;2024-02-15T02:50:35;2.60;;;1.10;;
8466;SDS011;4270;48.148;11.648;2024-02-15T02:53:00;0.77;;;0.70;;
8466;SDS011;4270;48.148;11.648;2024-02-15T02:55:25;1.50;;;1.00;;
8466;SDS011;4270;48.148;11.648;2024-02-15T02:57:52;1.53;;;1.30;;
8466;SDS011;4270;48.148;11.648;2024-02-15T03:00:19;1.60;;;1.03;;
8466;SDS011;4270;48.148;11.648;2024-02-15T03:02:47;1.13;;;0.90;;
8466;SDS011;4270;48.148;11.648;2024-02-15T03:05:13;1.70;;;1.23;;
8466;SDS011;4270;48.148;11.648;2024-02-15T03:07:39;1.50;;;1.00;;
8466;SDS011;4270;48.148;11.648;2024-02-15T03:10:07;1.70;;;1.10;;
8466;SDS011;4270;48.148;11.648;2024-02-15T03:12:36;2.07;;;1.20;;
8466;SDS011;4270;48.148;11.648;2024-02-15T03:15:02;1.87;;;1.30;;
8466;SDS011;4270;48.148;11.648;2024-02-15T03:17:28;1.67;;;1.07;;
8466;SDS011;4270;48.148;11.648;2024-02-15T03:19:53;1.70;;;1.30;;
8466;SDS011;4270;48.148;11.648;2024-02-15T03:22:18;2.30;;;1.10;;
8466;SDS011;4270;48.148;11.648;2024-02-15T03:24:43;1.70;;;0.90;;
8466;SDS011;4270;48.148;11.648;2024-02-15T03:27:09;1.10;;;1.00;;
8466;SDS011;4270;48.148;11.648;2024-02-15T03:29:37;1.87;;;1.27;;
8466;SDS011;4270;48.148;11.648;2024-02-15T03:32:02;1.23;;;1.03;;
8466;SDS011;4270;48.148;11.648;2024-02-15T03:34:29;1.40;;;1.10;;
8466;SDS011;4270;48.148;11.648;2024-02-15T03:36:54;1.53;;;1.30;;
8466;SDS011;4270;48.148;11.648;2024-02-15T03:39:19;2.53;;;1.50;;
8466;SDS011;4270;48.148;11.648;2024-02-15T03:41:45;2.27;;;1.20;;
8466;SDS011;4270;48.148;11.648;2024-02-15T03:44:11;1.73;;;1.20;;
8466;SDS011;4270;48.148;11.648;2024-02-15T03:46:36;1.60;;;1.30;;
8466;SDS011;4270;48.148;11.648;2024-02-15T03:49:01;1.60;;;1.20;;
8466;SDS011;4270;48.148;11.648;2024-02-15T03:51:26;1.20;;;1.00;;
8466;SDS011;4270;48.148;11.648;2024-02-15T03:53:52;2.47;;;1.30;;
8466;SDS011;4270;48.148;11.648;2024-02-15T03:56:17;1.77;;;1.30;;
8466;SDS011;4270;48.148;11.648;2024-02-15T03:58:42;3.00;;;1.20;;
8466;SDS011;4270;48.148;11.648;2024-02-15T04:01:07;2.43;;;1.23;;
8466;SDS011;4270;48.148;11.648;2024-02-15T04:03:34;2.20;;;0.90;;
8466;SDS011;4270;48.148;11.648;2024-02-15T04:06:00;4.37;;;1.30;;
8466;SDS011;4270;48.148;11.648;2024-02-15T04:08:25;3.60;;;1.50;;
8466;SDS011;4270;48.148;11.648;2024-02-15T04:10:50;3.10;;;1.23;;
8466;SDS011;4270;48.148;11.648;2024-02-15T04:13:15;1.13;;;1.03;;
8466;SDS011;4270;48.148;11.648;2024-02-15T04:15:41;3.00;;;1.30;;
8466;SDS011;4270;48.148;11.648;2024-02-15T04:18:08;1.60;;;1.20;;
8466;SDS011;4270;48.148;11.648;2024-02-15T04:20:35;3.83;;;1.50;;
8466;SDS011;4270;48.148;11.648;2024-02-15T04:23:01;1.10;;;1.00;;
8466;SDS011;4270;48.148;11.648;2024-02-15T04:25:26;1.50;;;1.13;;
8466;SDS011;4270;48.148;11.648;2024-02-15T04:27:53;1.70;;;1.03;;
8466;SDS011;4270;48.148;11.648;2024-02-15T04:30:18;5.40;;;1.20;;
8466;SDS011;4270;48.148;11.648;2024-02-15T04:32:44;1.90;;;1.37;;
8466;SDS011;4270;48.148;11.648;2024-02-15T04:35:09;2.03;;;1.20;;
8466;SDS011;4270;48.148;11.648;2024-02-15T04:37:35;2.53;;;1.43;;
8466;SDS011;4270;48.148;11.648;2024-02-15T04:40:01;0.90;;;0.90;;
8466;SDS011;4270;48.148;11.648;2024-02-15T04:42:33;1.97;;;1.33;;
8466;SDS011;4270;48.148;11.648;2024-02-15T04:44:59;1.70;;;1.20;;
8466;SDS011;4270;48.148;11.648;2024-02-15T04:47:24;2.47;;;1.20;;
8466;SDS011;4270;48.148;11.648;2024-02-15T04:49:49;3.50;;;1.33;;
8466;SDS011;4270;48.148;11.648;2024-02-15T04:52:14;1.97;;;1.20;;
8466;SDS011;4270;48.148;11.648;2024-02-15T04:54:40;1.80;;;1.17;;
8466;SDS011;4270;48.148;11.648;2024-02-15T04:57:05;2.77;;;1.27;;
8466;SDS011;4270;48.148;11.648;2024-02-15T04:59:31;3.17;;;1.53;;
8466;SDS011;4270;48.148;11.648;2024-02-15T05:01:57;2.53;;;1.03;;
8466;SDS011;4270;48.148;11.648;2024-02-15T05:04:23;2.47;;;1.30;;
8466;SDS011;4270;48.148;11.648;2024-02-15T05:06:49;2.67;;;1.60;;
8466;SDS011;4270;48.148;11.648;2024-02-15T05:09:14;1.73;;;1.10;;
8466;SDS011;4270;48.148;11.648;2024-02-15T05:11:43;1.77;;;1.57;;
8466;SDS011;4270;48.148;11.648;2024-02-15T05:14:15;2.17;;;1.20;;
8466;SDS011;4270;48.148;11.648;2024-02-15T05:16:48;2.13;;;1.70;;
8466;SDS011;4270;48.148;11.648;2024-02-15T05:19:16;4.00;;;1.30;;
8466;SDS011;4270;48.148;11.648;2024-02-15T05:21:42;2.20;;;1.17;;
8466;SDS011;4270;48.148;11.648;2024-02-15T05:24:10;1.53;;;1.03;;
8466;SDS011;4270;48.148;11.648;2024-02-15T05:26:35;2.60;;;1.33;;
8466;SDS011;4270;48.148;11.648;2024-02-15T05:29:00;1.60;;;1.17;;
8466;SDS011;4270;48.148;11.648;2024-02-15T05:31:25;1.53;;;1.20;;
8466;SDS011;4270;48.148;11.648;2024-02-15T05:33:52;3.43;;;1.27;;
8466;SDS011;4270;48.148;11.648;2024-02-15T05:36:19;1.53;;;1.30;;
8466;SDS011;4270;48.148;11.648;2024-02-15T05:38:45;1.40;;;1.00;;
8466;SDS011;4270;48.148;11.648;2024-02-15T05:41:10;1.67;;;1.57;;
8466;SDS011;4270;48.148;11.648;2024-02-15T05:43:36;1.73;;;1.30;;
8466;SDS011;4270;48.148;11.648;2024-02-15T05:46:04;2.50;;;1.37;;
8466;SDS011;4270;48.148;11.648;2024-02-15T05:48:31;1.70;;;1.30;;
8466;SDS011;4270;48.148;11.648;2024-02-15T05:50:56;1.60;;;1.50;;
8466;SDS011;4270;48.148;11.648;2024-02-15T05:53:23;2.13;;;1.20;;
8466;SDS011;4270;48.148;11.648;2024-02-15T05:55:50;2.67;;;1.23;;
8466;SDS011;4270;48.148;11.648;2024-02-15T05:58:15;1.53;;;1.40;;
8466;SDS011;4270;48.148;11.648;2024-02-15T06:00:41;1.63;;;1.50;;
8466;SDS011;4270;48.148;11.648;2024-02-15T06:03:06;2.23;;;1.20;;
8466;SDS011;4270;48.148;11.648;2024-02-15T06:05:34;1.63;;;1.27;;
8466;SDS011;4270;48.148;11.648;2024-02-15T06:07:59;2.03;;;1.07;;
8466;SDS011;4270;48.148;11.648;2024-02-15T06:10:24;2.00;;;1.13;;
8466;SDS011;4270;48.148;11.648;2024-02-15T06:12:50;1.20;;;1.10;;
8466;SDS011;4270;48.148;11.648;2024-02-15T06:15:15;2.13;;;1.30;;
8466;SDS011;4270;48.148;11.648;2024-02-15T06:17:41;3.07;;;1.13;;
8466;SDS011;4270;48.148;11.648;2024-02-15T06:20:09;2.23;;;1.37;;
8466;SDS011;4270;48.148;11.648;2024-02-15T06:22:37;2.03;;;1.10;;
8466;SDS011;4270;48.148;11.648;2024-02-15T06:25:03;3.07;;;1.40;;
8466;SDS011;4270;48.148;11.648;2024-02-15T06:27:28;3.47;;;1.47;;
8466;SDS011;4270;48.148;11.648;2024-02-15T06:29:53;0.90;;;0.87;;
8466;SDS011;4270;48.148;11.648;2024-02-15T06:32:37;2.40;;;1.30;;
8466;SDS011;4270;48.148;11.648;2024-02-15T06:35:21;1.53;;;1.20;;
8466;SDS011;4270;48.148;11.648;2024-02-15T06:38:05;2.13;;;1.30;;
8466;SDS011;4270;48.148;11.648;2024-02-15T06:40:49;2.33;;;1.50;;
8466;SDS011;4270;48.148;11.648;2024-02-15T06:43:14;1.80;;;1.40;;
8466;SDS011;4270;48.148;11.648;2024-02-15T06:45:39;4.50;;;1.90;;
8466;SDS011;4270;48.148;11.648;2024-02-15T06:48:07;2.53;;;1.53;;
8466;SDS011;4270;48.148;11.648;2024-02-15T06:50:32;3.20;;;2.13;;
8466;SDS011;4270;48.148;11.648;2024-02-15T06:52:57;1.90;;;1.50;;
8466;SDS011;4270;48.148;11.648;2024-02-15T06:55:22;4.93;;;1.83;;
8466;SDS011;4270;48.148;11.648;2024-02-15T06:57:48;6.33;;;1.40;;
8466;SDS011;4270;48.148;11.648;2024-02-15T07:00:13;4.00;;;1.40;;
8466;SDS011;4270;48.148;11.648;2024-02-15T07:02:40;1.43;;;1.13;;
8466;SDS011;4270;48.148;11.648;2024-02-15T07:05:06;1.53;;;1.20;;
8466;SDS011;4270;48.148;11.648;2024-02-15T07:07:31;2.30;;;1.40;;
8466;SDS011;4270;48.148;11.648;2024-02-15T07:09:57;3.13;;;1.50;;
8466;SDS011;4270;48.148;11.648;2024-02-15T07:12:22;2.13;;;1.23;;
8466;SDS011;4270;48.148;11.648;2024-02-15T07:14:47;2.00;;;1.70;;
8466;SDS011;4270;48.148;11.648;2024-02-15T07:17:12;1.73;;;1.37;;
8466;SDS011;4270;48.148;11.648;2024-02-15T07:19:41;4.33;;;1.60;;
8466;SDS011;4270;48.148;11.648;2024-02-15T07:22:06;5.63;;;1.73;;
8466;SDS011;4270;48.148;11.648;2024-02-15T07:24:32;2.80;;;1.60;;
8466;SDS011;4270;48.148;11.648;2024-02-15T07:26:57;1.87;;;1.40;;
8466;SDS011;4270;48.148;11.648;2024-02-15T07:29:23;3.17;;;1.20;;
8466;SDS011;4270;48.148;11.648;2024-02-15T07:31:48;3.37;;;1.63;;
8466;SDS011;4270;48.148;11.648;2024-02-15T07:34:13;1.93;;;1.40;;
8466;SDS011;4270;48.148;11.648;2024-02-15T07:36:39;1.73;;;1.47;;
8466;SDS011;4270;48.148;11.648;2024-02-15T07:39:07;3.53;;;1.30;;
8466;SDS011;4270;48.148;11.648;2024-02-15T07:41:36;2.60;;;1.43;;
8466;SDS011;4270;48.148;11.648;2024-02-15T07:44:01;3.90;;;1.60;;
8466;SDS011;4270;48.148;11.648;2024-02-15T07:46:27;2.47;;;1.80;;
8466;SDS011;4270;48.148;11.648;2024-02-15T07:48:52;2.43;;;1.80;;
8466;SDS011;4270;48.148;11.648;2024-02-15T07:51:19;5.70;;;2.40;;
8466;SDS011;4270;48.148;11.648;2024-02-15T07:53:44;4.57;;;1.80;;
8466;SDS011;4270;48.148;11.648;2024-02-15T07:56:10;3.83;;;1.50;;
8466;SDS011;4270;48.148;11.648;2024-02-15T07:58:39;2.67;;;1.60;;
8466;SDS011;4270;48.148;11.648;2024-02-15T08:01:06;3.20;;;1.40;;
8466;SDS011;4270;48.148;11.648;2024-02-15T08:03:31;4.53;;;1.67;;
8466;SDS011;4270;48.148;11.648;2024-02-15T08:05:57;3.00;;;1.67;;
8466;SDS011;4270;48.148;11.648;2024-02-15T08:08:22;2.17;;;1.20;;
8466;SDS011;4270;48.148;11.648;2024-02-15T08:10:47;2.50;;;1.70;;
8466;SDS011;4270;48.148;11.648;2024-02-15T08:13:16;2.60;;;1.63;;
8466;SDS011;4270;48.148;11.648;2024-02-15T08:15:42;3.40;;;1.70;;
8466;SDS011;4270;48.148;11.648;2024-02-15T08:18:09;3.07;;;1.47;;
8466;SDS011;4270;48.148;11.648;2024-02-15T08:20:37;5.13;;;1.57;;
8466;SDS011;4270;48.148;11.648;2024-02-15T08:23:02;3.10;;;1.70;;
8466;SDS011;4270;48.148;11.648;2024-02-15T08:25:27;4.83;;;2.17;;
8466;SDS011;4270;48.148;11.648;2024-02-15T08:27:53;2.57;;;1.43;;
8466;SDS011;4270;48.148;11.648;2024-02-15T08:30:19;6.73;;;1.93;;
8466;SDS011;4270;48.148;11.648;2024-02-15T08:32:45;5.73;;;1.97;;
8466;SDS011;4270;48.148;11.648;2024-02-15T08:35:13;3.47;;;2.10;;
8466;SDS011;4270;48.148;11.648;2024-02-15T08:37:39;3.17;;;1.50;;
8466;SDS011;4270;48.148;11.648;2024-02-15T08:40:05;2.60;;;1.80;;
8466;SDS011;4270;48.148;11.648;2024-02-15T08:42:36;4.87;;;1.93;;
8466;SDS011;4270;48.148;11.648;2024-02-15T08:45:03;3.17;;;1.80;;
8466;SDS011;4270;48.148;11.648;2024-02-15T08:47:28;2.50;;;1.80;;
8466;SDS011;4270;48.148;11.648;2024-02-15T08:49:53;4.20;;;2.53;;
8466;SDS011;4270;48.148;11.648;2024-02-15T08:52:19;3.20;;;2.30;;
8466;SDS011;4270;48.148;11.648;2024-02-15T08:54:44;4.17;;;2.20;;
8466;SDS011;4270;48.148;11.648;2024-02-15T08:57:09;5.43;;;1.83;;
8466;SDS011;4270;48.148;11.648;2024-02-15T08:59:36;2.70;;;1.93;;
8466;SDS011;4270;48.148;11.648;2024-02-15T09:02:01;2.40;;;1.83;;
8466;SDS011;4270;48.148;11.648;2024-02-15T09:04:27;2.23;;;1.63;;
8466;SDS011;4270;48.148;11.648;2024-02-15T09:06:52;3.27;;;2.10;;
8466;SDS011;4270;48.148;11.648;2024-02-15T09:09:17;2.57;;;1.93;;
8466;SDS011;4270;48.148;11.648;2024-02-15T09:11:43;2.13;;;1.60;;
8466;SDS011;4270;48.148;11.648;2024-02-15T09:14:08;1.80;;;1.57;;
8466;SDS011;4270;48.148;11.648;2024-02-15T09:16:35;2.97;;;1.80;;
8466;SDS011;4270;48.148;11.648;2024-02-15T09:19:00;4.40;;;1.90;;
8466;SDS011;4270;48.148;11.648;2024-02-15T09:21:26;2.67;;;1.50;;
8466;SDS011;4270;48.148;11.648;2024-02-15T09:23:54;1.90;;;1.47;;
8466;SDS011;4270;48.148;11.648;2024-02-15T09:26:19;1.93;;;1.63;;
8466;SDS011;4270;48.148;11.648;2024-02-15T09:28:44;2.33;;;1.53;;
8466;SDS011;4270;48.148;11.648;2024-02-15T09:31:11;4.40;;;1.73;;
8466;SDS011;4270;48.148;11.648;2024-02-15T09:33:38;3.57;;;1.80;;
8466;SDS011;4270;48.148;11.648;2024-02-15T09:36:04;3.90;;;2.07;;
8466;SDS011;4270;48.148;11.648;2024-02-15T09:38:29;1.93;;;1.57;;
8466;SDS011;4270;48.148;11.648;2024-02-15T09:40:54;2.20;;;1.90;;
8466;SDS011;4270;48.148;11.648;2024-02-15T09:43:20;3.30;;;1.40;;
8466;SDS011;4270;48.148;11.648;2024-02-15T09:45:46;2.27;;;1.27;;
8466;SDS011;4270;48.148;11.648;2024-02-15T09:48:12;2.10;;;1.50;;
8466;SDS011;4270;48.148;11.648;2024-02-15T09:50:39;2.50;;;1.37;;
8466;SDS011;4270;48.148;11.648;2024-02-15T09:53:04;1.30;;;1.20;;
8466;SDS011;4270;48.148;11.648;2024-02-15T09:55:33;1.47;;;1.30;;
8466;SDS011;4270;48.148;11.648;2024-02-15T09:57:58;1.70;;;1.30;;
8466;SDS011;4270;48.148;11.648;2024-02-15T10:00:24;3.40;;;1.40;;
8466;SDS011;4270;48.148;11.648;2024-02-15T10:02:50;4.57;;;1.37;;
8466;SDS011;4270;48.148;11.648;2024-02-15T10:05:17;1.57;;;1.20;;
8466;SDS011;4270;48.148;11.648;2024-02-15T10:07:43;1.70;;;1.17;;
8466;SDS011;4270;48.148;11.648;2024-02-15T10:10:17;1.10;;;1.00;;
8466;SDS011;4270;48.148;11.648;2024-02-15T10:12:43;1.77;;;1.30;;
8466;SDS011;4270;48.148;11.648;2024-02-15T10:15:09;3.30;;;1.20;;
8466;SDS011;4270;48.148;11.648;2024-02-15T10:17:35;1.90;;;1.30;;
8466;SDS011;4270;48.148;11.648;2024-02-15T10:20:04;2.30;;;1.53;;
8466;SDS011;4270;48.148;11.648;2024-02-15T10:22:30;2.07;;;1.20;;
8466;SDS011;4270;48.148;11.648;2024-02-15T10:25:11;2.23;;;1.10;;
8466;SDS011;4270;48.148;11.648;2024-02-15T10:27:37;2.27;;;1.67;;
8466;SDS011;4270;48.148;11.648;2024-02-15T10:30:18;2.17;;;1.27;;
8466;SDS011;4270;48.148;11.648;2024-02-15T10:32:44;1.53;;;1.00;;
8466;SDS011;4270;48.148;11.648;2024-02-15T10:35:10;1.60;;;0.97;;
8466;SDS011;4270;48.148;11.648;2024-02-15T10:37:40;1.10;;;0.90;;
8466;SDS011;4270;48.148;11.648;2024-02-15T10:40:05;2.57;;;1.30;;
8466;SDS011;4270;48.148;11.648;2024-02-15T10:42:34;1.00;;;0.90;;
8466;SDS011;4270;48.148;11.648;2024-02-15T10:45:01;2.07;;;1.30;;
8466;SDS011;4270;48.148;11.648;2024-02-15T10:47:30;2.90;;;2.20;;
8466;SDS011;4270;48.148;11.648;2024-02-15T10:49:55;1.20;;;1.10;;
8466;SDS011;4270;48.148;11.648;2024-02-15T10:52:20;1.67;;;1.03;;
8466;SDS011;4270;48.148;11.648;2024-02-15T10:54:58;1.10;;;1.00;;
8466;SDS011;4270;48.148;11.648;2024-02-15T10:57:24;1.27;;;1.00;;
8466;SDS011;4270;48.148;11.648;2024-02-15T11:04:52;2.20;;;1.00;;
8466;SDS011;4270;48.148;11.648;2024-02-15T11:07:21;1.17;;;0.87;;
8466;SDS011;4270;48.148;11.648;2024-02-15T11:09:46;1.67;;;0.80;;
8466;SDS011;4270;48.148;11.648;2024-02-15T11:12:12;1.10;;;1.00;;
8466;SDS011;4270;48.148;11.648;2024-02-15T11:14:37;1.93;;;0.80;;
8466;SDS011;4270;48.148;11.648;2024-02-15T11:17:03;1.00;;;0.67;;
8466;SDS011;4270;48.148;11.648;2024-02-15T11:21:57;2.60;;;0.90;;
8466;SDS011;4270;48.148;11.648;2024-02-15T11:24:29;1.10;;;0.90;;
8466;SDS011;4270;48.148;11.648;2024-02-15T11:32:06;2.43;;;0.80;;
8466;SDS011;4270;48.148;11.648;2024-02-15T11:34:53;1.37;;;1.13;;
8466;SDS011;4270;48.148;11.648;2024-02-15T11:40:02;2.70;;;0.90;;
8466;SDS011;4270;48.148;11.648;2024-02-15T11:42:28;1.10;;;0.77;;
8466;SDS011;4270;48.148;11.648;2024-02-15T11:45:02;2.13;;;1.20;;
8466;SDS011;4270;48.148;11.648;2024-02-15T11:47:30;2.37;;;1.00;;
8466;SDS011;4270;48.148;11.648;2024-02-15T11:49:59;1.10;;;0.80;;
8466;SDS011;4270;48.148;11.648;2024-02-15T11:52:24;0.70;;;0.70;;
8466;SDS011;4270;48.148;11.648;2024-02-15T11:54:49;1.27;;;0.90;;
8466;SDS011;4270;48.148;11.648;2024-02-15T11:57:15;1.23;;;0.83;;
8466;SDS011;4270;48.148;11.648;2024-02-15T11:59:50;1.57;;;0.80;;
8466;SDS011;4270;48.148;11.648;2024-02-15T12:02:38;2.03;;;0.90;;
8466;SDS011;4270;48.148;11.648;2024-02-15T12:05:21;1.63;;;0.70;;
8466;SDS011;4270;48.148;11.648;2024-02-15T12:08:05;1.50;;;0.70;;
8466;SDS011;4270;48.148;11.648;2024-02-15T12:10:56;1.93;;;1.17;;
8466;SDS011;4270;48.148;11.648;2024-02-15T12:13:40;0.90;;;0.80;;
8466;SDS011;4270;48.148;11.648;2024-02-15T12:16:24;2.70;;;1.10;;
8466;SDS011;4270;48.148;11.648;2024-02-15T12:19:08;1.03;;;0.80;;
8466;SDS011;4270;48.148;11.648;2024-02-15T12:21:35;1.33;;;0.87;;
8466;SDS011;4270;48.148;11.648;2024-02-15T12:24:05;1.17;;;1.07;;
8466;SDS011;4270;48.148;11.648;2024-02-15T12:26:31;1.90;;;0.70;;
8466;SDS011;4270;48.148;11.648;2024-02-15T12:28:59;1.00;;;0.90;;
8466;SDS011;4270;48.148;11.648;2024-02-15T12:31:26;2.50;;;0.77;;
8466;SDS011;4270;48.148;11.648;2024-02-15T12:34:01;1.13;;;1.00;;
8466;SDS011;4270;48.148;11.648;2024-02-15T12:36:26;2.03;;;1.10;;
8466;SDS011;4270;48.148;11.648;2024-02-15T12:39:00;0.90;;;0.90;;
8466;SDS011;4270;48.148;11.648;2024-02-15T12:41:25;0.97;;;0.90;;
8466;SDS011;4270;48.148;11.648;2024-02-15T12:43:53;0.83;;;0.70;;
8466;SDS011;4270;48.148;11.648;2024-02-15T12:46:19;1.00;;;0.80;;
8466;SDS011;4270;48.148;11.648;2024-02-15T12:48:44;1.03;;;0.83;;
8466;SDS011;4270;48.148;11.648;2024-02-15T12:51:13;1.10;;;0.80;;
8466;SDS011;4270;48.148;11.648;2024-02-15T12:53:39;1.13;;;0.80;;
8466;SDS011;4270;48.148;11.648;2024-02-15T12:56:06;2.43;;;0.80;;
8466;SDS011;4270;48.148;11.648;2024-02-15T12:58:32;1.07;;;0.97;;
8466;SDS011;4270;48.148;11.648;2024-02-15T13:00:57;0.87;;;0.70;;
8466;SDS011;4270;48.148;11.648;2024-02-15T13:03:23;1.03;;;0.90;;
8466;SDS011;4270;48.148;11.648;2024-02-15T13:05:49;1.50;;;1.00;;
8466;SDS011;4270;48.148;11.648;2024-02-15T13:08:14;1.07;;;0.80;;
8466;SDS011;4270;48.148;11.648;2024-02-15T13:10:40;2.03;;;0.90;;
8466;SDS011;4270;48.148;11.648;2024-02-15T13:13:05;1.00;;;0.90;;
8466;SDS011;4270;48.148;11.648;2024-02-15T13:15:30;2.50;;;1.30;;
8466;SDS011;4270;48.148;11.648;2024-02-15T13:17:59;1.40;;;0.80;;
8466;SDS011;4270;48.148;11.648;2024-02-15T13:20:24;1.23;;;0.90;;
8466;SDS011;4270;48.148;11.648;2024-02-15T13:23:00;1.93;;;0.93;;
8466;SDS011;4270;48.148;11.648;2024-02-15T13:25:28;1.40;;;1.00;;
8466;SDS011;4270;48.148;11.648;2024-02-15T13:27:53;0.90;;;0.80;;
8466;SDS011;4270;48.148;11.648;2024-02-15T13:30:18;1.57;;;0.77;;
8466;SDS011;4270;48.148;11.648;2024-02-15T13:32:48;0.80;;;0.70;;
8466;SDS011;4270;48.148;11.648;2024-02-15T13:35:13;2.47;;;0.97;;
8466;SDS011;4270;48.148;11.648;2024-02-15T13:37:42;2.30;;;1.20;;
8466;SDS011;4270;48.148;11.648;2024-02-15T13:40:09;0.93;;;0.80;;
8466;SDS011;4270;48.148;11.648;2024-02-15T13:42:40;1.30;;;0.80;;
8466;SDS011;4270;48.148;11.648;2024-02-15T13:45:05;1.43;;;1.00;;
8466;SDS011;4270;48.148;11.648;2024-02-15T13:47:32;1.67;;;0.90;;
8466;SDS011;4270;48.148;11.648;2024-02-15T13:49:57;2.10;;;1.20;;
8466;SDS011;4270;48.148;11.648;2024-02-15T13:52:22;3.30;;;1.33;;
8466;SDS011;4270;48.148;11.648;2024-02-15T13:54:47;1.27;;;1.03;;
8466;SDS011;4270;48.148;11.648;2024-02-15T13:57:13;4.80;;;1.57;;
8466;SDS011;4270;48.148;11.648;2024-02-15T13:59:39;1.43;;;1.00;;
8466;SDS011;4270;48.148;11.648;2024-02-15T14:02:04;1.00;;;0.80;;
8466;SDS011;4270;48.148;11.648;2024-02-15T14:04:30;1.37;;;0.93;;
8466;SDS011;4270;48.148;11.648;2024-02-15T14:06:57;1.30;;;0.80;;
8466;SDS011;4270;48.148;11.648;2024-02-15T14:09:22;1.27;;;1.10;;
8466;SDS011;4270;48.148;11.648;2024-02-15T14:11:50;2.17;;;1.00;;
8466;SDS011;4270;48.148;11.648;2024-02-15T14:14:16;3.03;;;1.10;;
8466;SDS011;4270;48.148;11.648;2024-02-15T14:16:42;1.70;;;1.40;;
8466;SDS011;4270;48.148;11.648;2024-02-15T14:19:07;1.30;;;1.10;;
8466;SDS011;4270;48.148;11.648;2024-02-15T14:21:33;2.40;;;1.27;;
8466;SDS011;4270;48.148;11.648;2024-02-15T14:24:03;2.27;;;1.07;;
8466;SDS011;4270;48.148;11.648;2024-02-15T14:26:31;1.00;;;0.80;;
8466;SDS011;4270;48.148;11.648;2024-02-15T14:28:56;1.30;;;1.00;;
8466;SDS011;4270;48.148;11.648;2024-02-15T14:31:21;2.33;;;1.10;;
8466;SDS011;4270;48.148;11.648;2024-02-15T14:34:04;1.87;;;0.93;;
8466;SDS011;4270;48.148;11.648;2024-02-15T14:36:30;2.73;;;0.90;;
8466;SDS011;4270;48.148;11.648;2024-02-15T14:38:55;1.50;;;1.20;;
8466;SDS011;4270;48.148;11.648;2024-02-15T14:41:20;5.70;;;1.00;;
8466;SDS011;4270;48.148;11.648;2024-02-15T14:43:47;2.40;;;1.20;;
8466;SDS011;4270;48.148;11.648;2024-02-15T14:46:13;1.03;;;0.90;;
8466;SDS011;4270;48.148;11.648;2024-02-15T14:48:38;1.07;;;0.97;;
8466;SDS011;4270;48.148;11.648;2024-02-15T14:51:08;2.53;;;1.20;;
8466;SDS011;4270;48.148;11.648;2024-02-15T14:53:34;1.43;;;1.20;;
8466;SDS011;4270;48.148;11.648;2024-02-15T14:55:59;1.80;;;1.13;;
8466;SDS011;4270;48.148;11.648;2024-02-15T14:58:24;2.00;;;1.50;;
8466;SDS011;4270;48.148;11.648;2024-02-15T15:00:50;1.83;;;1.20;;
8466;SDS011;4270;48.148;11.648;2024-02-15T15:03:15;1.37;;;1.13;;
8466;SDS011;4270;48.148;11.648;2024-02-15T15:05:41;2.23;;;1.20;;
8466;SDS011;4270;48.148;11.648;2024-02-15T15:08:25;2.30;;;1.10;;
8466;SDS011;4270;48.148;11.648;2024-02-15T15:11:09;1.40;;;1.27;;
8466;SDS011;4270;48.148;11.648;2024-02-15T15:13:53;4.67;;;1.90;;